This is the latest recevied weather packets stored in our database for station/object F4CYQ-10. If no packets are shown the sender has not sent any weather packets the latest 10 day(s).
| Time | Temp. | Humidity | Pressure | Rain* | Wind** | Luminosity | Snow |
|---|---|---|---|---|---|---|---|
| 1777469194 | 18.89° C | 63% | 1010.3 hPa | - | - | - | - |
| 1777468293 | 20° C | 61% | 1010.4 hPa | - | - | - | - |
| 1777467559 | 19.44° C | 61% | 1010.4 hPa | - | - | - | - |
| 1777466658 | 20° C | 62% | 1010.3 hPa | - | - | - | - |
| 1777465757 | 20° C | 62% | 1010.3 hPa | - | - | - | - |
| 1777465027 | 19.44° C | 63% | 1010.4 hPa | - | - | - | - |
| 1777464125 | 19.44° C | 63% | 1010.5 hPa | - | - | - | - |
| 1777463224 | 20.56° C | 63% | 1010.5 hPa | - | - | - | - |
| 1777462396 | 20° C | 63% | 1010.6 hPa | - | - | - | - |
| 1777461495 | -5° C | 100% | 4.8 hPa | - | - | - | - |
| 1777460594 | -5° C | 100% | 4.8 hPa | - | - | - | - |
| 1777460323 | 20° C | 63% | 1010.5 hPa | - | - | - | - |
| 1777459422 | 20° C | 62% | 1010.4 hPa | - | - | - | - |
| 1777458521 | 20° C | 62% | 1010.6 hPa | - | - | - | - |
| 1777457620 | 21.11° C | 61% | 1010.6 hPa | - | - | - | - |
| 1777457432 | 20° C | 62% | 1010.6 hPa | - | - | - | - |
| 1777456531 | 19.44° C | 62% | 1010.5 hPa | - | - | - | - |
| 1777455629 | 19.44° C | 62% | 1010.5 hPa | - | - | - | - |
| 1777454728 | -5° C | 100% | 4.8 hPa | - | - | - | - |
| 1777454440 | 20° C | 61% | 1010.6 hPa | - | - | - | - |
| 1777453539 | 19.44° C | 60% | 1010.5 hPa | - | - | - | - |
| 1777452638 | 21.11° C | 60% | 1010.4 hPa | - | - | - | - |
| 1777451737 | 21.11° C | 60% | 1010.4 hPa | - | - | - | - |
| 1777451488 | 20° C | 61% | 1010.3 hPa | - | - | - | - |
| 1777450587 | 20° C | 59% | 1010.4 hPa | - | - | - | - |
* Rain since midnight (hover to see other rain measurements)
** Current wind speed in m/s (hover to see current wind gust speed)